sensor_id;sensor_type;location;lat;lon;timestamp;P1;durP1;ratioP1;P2;durP2;ratioP2
7971;SDS011;4031;49.758;6.120;2023-08-08T00:01:20;2.77;;;1.93;;
7971;SDS011;4031;49.758;6.120;2023-08-08T00:03:46;4.50;;;1.90;;
7971;SDS011;4031;49.758;6.120;2023-08-08T00:06:12;2.43;;;2.13;;
7971;SDS011;4031;49.758;6.120;2023-08-08T00:08:37;3.63;;;2.33;;
7971;SDS011;4031;49.758;6.120;2023-08-08T00:11:03;5.77;;;2.30;;
7971;SDS011;4031;49.758;6.120;2023-08-08T00:13:29;4.10;;;1.70;;
7971;SDS011;4031;49.758;6.120;2023-08-08T00:15:55;4.10;;;2.13;;
7971;SDS011;4031;49.758;6.120;2023-08-08T00:18:20;2.87;;;2.07;;
7971;SDS011;4031;49.758;6.120;2023-08-08T00:20:46;2.87;;;1.60;;
7971;SDS011;4031;49.758;6.120;2023-08-08T00:23:12;2.60;;;2.13;;
7971;SDS011;4031;49.758;6.120;2023-08-08T00:25:37;1.70;;;1.60;;
7971;SDS011;4031;49.758;6.120;2023-08-08T00:28:03;2.50;;;2.20;;
7971;SDS011;4031;49.758;6.120;2023-08-08T00:30:29;4.33;;;2.20;;
7971;SDS011;4031;49.758;6.120;2023-08-08T00:32:54;2.60;;;2.10;;
7971;SDS011;4031;49.758;6.120;2023-08-08T00:35:20;2.43;;;2.23;;
7971;SDS011;4031;49.758;6.120;2023-08-08T00:37:46;3.53;;;2.13;;
7971;SDS011;4031;49.758;6.120;2023-08-08T00:40:12;3.97;;;2.57;;
7971;SDS011;4031;49.758;6.120;2023-08-08T00:42:38;4.43;;;2.40;;
7971;SDS011;4031;49.758;6.120;2023-08-08T00:45:04;3.40;;;1.90;;
7971;SDS011;4031;49.758;6.120;2023-08-08T00:47:31;1.83;;;1.50;;
7971;SDS011;4031;49.758;6.120;2023-08-08T00:49:58;3.50;;;2.03;;
7971;SDS011;4031;49.758;6.120;2023-08-08T00:52:24;3.17;;;2.10;;
7971;SDS011;4031;49.758;6.120;2023-08-08T00:54:51;4.97;;;2.20;;
7971;SDS011;4031;49.758;6.120;2023-08-08T00:57:18;3.53;;;2.30;;
7971;SDS011;4031;49.758;6.120;2023-08-08T00:59:44;2.00;;;1.80;;
7971;SDS011;4031;49.758;6.120;2023-08-08T01:02:09;2.87;;;2.10;;
7971;SDS011;4031;49.758;6.120;2023-08-08T01:04:36;4.60;;;2.00;;
7971;SDS011;4031;49.758;6.120;2023-08-08T01:07:12;2.77;;;2.03;;
7971;SDS011;4031;49.758;6.120;2023-08-08T01:09:50;2.13;;;2.00;;
7971;SDS011;4031;49.758;6.120;2023-08-08T01:12:40;3.43;;;1.73;;
7971;SDS011;4031;49.758;6.120;2023-08-08T01:15:10;4.53;;;2.10;;
7971;SDS011;4031;49.758;6.120;2023-08-08T01:17:38;2.33;;;1.60;;
7971;SDS011;4031;49.758;6.120;2023-08-08T01:20:06;2.87;;;1.87;;
7971;SDS011;4031;49.758;6.120;2023-08-08T01:22:37;2.80;;;1.60;;
7971;SDS011;4031;49.758;6.120;2023-08-08T01:25:09;2.03;;;1.87;;
7971;SDS011;4031;49.758;6.120;2023-08-08T01:27:35;3.60;;;2.43;;
7971;SDS011;4031;49.758;6.120;2023-08-08T01:30:02;3.00;;;2.13;;
7971;SDS011;4031;49.758;6.120;2023-08-08T01:32:29;2.93;;;2.27;;
7971;SDS011;4031;49.758;6.120;2023-08-08T01:34:54;2.60;;;2.33;;
7971;SDS011;4031;49.758;6.120;2023-08-08T01:37:23;2.33;;;1.67;;
7971;SDS011;4031;49.758;6.120;2023-08-08T01:39:56;2.33;;;2.10;;
7971;SDS011;4031;49.758;6.120;2023-08-08T01:42:24;2.03;;;1.80;;
7971;SDS011;4031;49.758;6.120;2023-08-08T01:44:51;3.33;;;2.40;;
7971;SDS011;4031;49.758;6.120;2023-08-08T01:47:18;2.43;;;2.03;;
7971;SDS011;4031;49.758;6.120;2023-08-08T01:49:44;2.80;;;2.60;;
7971;SDS011;4031;49.758;6.120;2023-08-08T01:52:10;2.10;;;2.00;;
7971;SDS011;4031;49.758;6.120;2023-08-08T01:54:35;5.13;;;2.60;;
7971;SDS011;4031;49.758;6.120;2023-08-08T01:57:01;4.63;;;2.77;;
7971;SDS011;4031;49.758;6.120;2023-08-08T01:59:27;2.40;;;2.00;;
7971;SDS011;4031;49.758;6.120;2023-08-08T02:01:52;3.23;;;2.50;;
7971;SDS011;4031;49.758;6.120;2023-08-08T02:04:19;3.70;;;1.90;;
7971;SDS011;4031;49.758;6.120;2023-08-08T02:06:45;1.70;;;1.60;;
7971;SDS011;4031;49.758;6.120;2023-08-08T02:09:11;3.67;;;2.57;;
7971;SDS011;4031;49.758;6.120;2023-08-08T02:11:39;2.33;;;2.17;;
7971;SDS011;4031;49.758;6.120;2023-08-08T02:14:05;4.83;;;2.00;;
7971;SDS011;4031;49.758;6.120;2023-08-08T02:16:30;3.83;;;2.00;;
7971;SDS011;4031;49.758;6.120;2023-08-08T02:18:56;6.37;;;2.40;;
7971;SDS011;4031;49.758;6.120;2023-08-08T02:21:22;4.60;;;2.57;;
7971;SDS011;4031;49.758;6.120;2023-08-08T02:23:48;3.60;;;2.00;;
7971;SDS011;4031;49.758;6.120;2023-08-08T02:26:13;6.40;;;2.37;;
7971;SDS011;4031;49.758;6.120;2023-08-08T02:28:39;4.37;;;2.07;;
7971;SDS011;4031;49.758;6.120;2023-08-08T02:31:06;3.27;;;2.20;;
7971;SDS011;4031;49.758;6.120;2023-08-08T02:33:31;1.93;;;1.67;;
7971;SDS011;4031;49.758;6.120;2023-08-08T02:35:57;2.53;;;1.97;;
7971;SDS011;4031;49.758;6.120;2023-08-08T02:38:23;2.30;;;2.07;;
7971;SDS011;4031;49.758;6.120;2023-08-08T02:40:48;3.53;;;2.03;;
7971;SDS011;4031;49.758;6.120;2023-08-08T02:43:14;4.07;;;2.60;;
7971;SDS011;4031;49.758;6.120;2023-08-08T02:45:41;4.67;;;2.80;;
7971;SDS011;4031;49.758;6.120;2023-08-08T02:48:07;1.80;;;1.70;;
7971;SDS011;4031;49.758;6.120;2023-08-08T02:50:32;1.93;;;1.80;;
7971;SDS011;4031;49.758;6.120;2023-08-08T02:52:58;7.43;;;2.30;;
7971;SDS011;4031;49.758;6.120;2023-08-08T02:55:24;2.73;;;1.80;;
7971;SDS011;4031;49.758;6.120;2023-08-08T02:57:49;2.17;;;1.90;;
7971;SDS011;4031;49.758;6.120;2023-08-08T03:00:15;2.17;;;1.70;;
7971;SDS011;4031;49.758;6.120;2023-08-08T03:02:42;3.53;;;1.93;;
7971;SDS011;4031;49.758;6.120;2023-08-08T03:05:08;2.00;;;1.40;;
7971;SDS011;4031;49.758;6.120;2023-08-08T03:07:34;3.50;;;2.00;;
7971;SDS011;4031;49.758;6.120;2023-08-08T03:09:59;3.20;;;2.20;;
7971;SDS011;4031;49.758;6.120;2023-08-08T03:12:25;3.27;;;2.17;;
7971;SDS011;4031;49.758;6.120;2023-08-08T03:14:51;3.80;;;2.07;;
7971;SDS011;4031;49.758;6.120;2023-08-08T03:17:17;4.00;;;2.00;;
7971;SDS011;4031;49.758;6.120;2023-08-08T03:19:43;3.27;;;2.10;;
7971;SDS011;4031;49.758;6.120;2023-08-08T03:22:09;2.30;;;1.73;;
7971;SDS011;4031;49.758;6.120;2023-08-08T03:24:34;3.37;;;2.40;;
7971;SDS011;4031;49.758;6.120;2023-08-08T03:27:00;1.77;;;1.67;;
7971;SDS011;4031;49.758;6.120;2023-08-08T03:29:26;3.57;;;1.80;;
7971;SDS011;4031;49.758;6.120;2023-08-08T03:31:51;3.73;;;2.20;;
7971;SDS011;4031;49.758;6.120;2023-08-08T03:34:17;3.87;;;1.80;;
7971;SDS011;4031;49.758;6.120;2023-08-08T03:36:43;3.23;;;2.20;;
7971;SDS011;4031;49.758;6.120;2023-08-08T03:39:09;2.90;;;2.10;;
7971;SDS011;4031;49.758;6.120;2023-08-08T03:41:34;1.70;;;1.60;;
7971;SDS011;4031;49.758;6.120;2023-08-08T03:44:01;6.27;;;2.07;;
7971;SDS011;4031;49.758;6.120;2023-08-08T03:46:27;1.50;;;1.40;;
7971;SDS011;4031;49.758;6.120;2023-08-08T03:48:54;6.50;;;2.50;;
7971;SDS011;4031;49.758;6.120;2023-08-08T03:51:19;2.50;;;1.77;;
7971;SDS011;4031;49.758;6.120;2023-08-08T03:53:45;3.57;;;2.03;;
7971;SDS011;4031;49.758;6.120;2023-08-08T03:56:11;5.17;;;1.90;;
7971;SDS011;4031;49.758;6.120;2023-08-08T03:58:38;3.73;;;2.07;;
7971;SDS011;4031;49.758;6.120;2023-08-08T04:01:03;5.97;;;2.50;;
7971;SDS011;4031;49.758;6.120;2023-08-08T04:03:29;3.00;;;2.30;;
7971;SDS011;4031;49.758;6.120;2023-08-08T04:05:55;2.23;;;2.13;;
7971;SDS011;4031;49.758;6.120;2023-08-08T04:08:21;4.33;;;2.30;;
7971;SDS011;4031;49.758;6.120;2023-08-08T04:10:46;3.17;;;2.23;;
7971;SDS011;4031;49.758;6.120;2023-08-08T04:13:12;3.37;;;2.73;;
7971;SDS011;4031;49.758;6.120;2023-08-08T04:15:38;2.30;;;1.63;;
7971;SDS011;4031;49.758;6.120;2023-08-08T04:18:04;10.30;;;2.30;;
7971;SDS011;4031;49.758;6.120;2023-08-08T04:20:33;2.10;;;2.00;;
7971;SDS011;4031;49.758;6.120;2023-08-08T04:22:59;5.53;;;2.40;;
7971;SDS011;4031;49.758;6.120;2023-08-08T04:25:25;5.43;;;2.30;;
7971;SDS011;4031;49.758;6.120;2023-08-08T04:27:52;10.30;;;3.03;;
7971;SDS011;4031;49.758;6.120;2023-08-08T04:30:17;5.17;;;3.00;;
7971;SDS011;4031;49.758;6.120;2023-08-08T04:32:43;2.13;;;1.93;;
7971;SDS011;4031;49.758;6.120;2023-08-08T04:35:10;5.40;;;2.60;;
7971;SDS011;4031;49.758;6.120;2023-08-08T04:37:35;2.63;;;1.67;;
7971;SDS011;4031;49.758;6.120;2023-08-08T04:40:01;2.60;;;2.00;;
7971;SDS011;4031;49.758;6.120;2023-08-08T04:42:27;3.97;;;2.30;;
7971;SDS011;4031;49.758;6.120;2023-08-08T04:44:53;5.50;;;2.43;;
7971;SDS011;4031;49.758;6.120;2023-08-08T04:47:18;7.60;;;2.30;;
7971;SDS011;4031;49.758;6.120;2023-08-08T04:49:44;3.60;;;2.10;;
7971;SDS011;4031;49.758;6.120;2023-08-08T04:52:10;2.30;;;2.07;;
7971;SDS011;4031;49.758;6.120;2023-08-08T04:54:35;2.53;;;2.20;;
7971;SDS011;4031;49.758;6.120;2023-08-08T04:57:01;8.73;;;2.30;;
7971;SDS011;4031;49.758;6.120;2023-08-08T04:59:27;3.87;;;2.57;;
7971;SDS011;4031;49.758;6.120;2023-08-08T05:01:53;4.40;;;2.20;;
7971;SDS011;4031;49.758;6.120;2023-08-08T05:04:19;4.43;;;2.13;;
7971;SDS011;4031;49.758;6.120;2023-08-08T05:06:44;3.50;;;2.80;;
7971;SDS011;4031;49.758;6.120;2023-08-08T05:09:11;4.43;;;3.13;;
7971;SDS011;4031;49.758;6.120;2023-08-08T05:11:37;8.07;;;2.90;;
7971;SDS011;4031;49.758;6.120;2023-08-08T05:14:02;6.73;;;3.20;;
7971;SDS011;4031;49.758;6.120;2023-08-08T05:16:28;8.20;;;3.17;;
7971;SDS011;4031;49.758;6.120;2023-08-08T05:18:54;6.17;;;3.47;;
7971;SDS011;4031;49.758;6.120;2023-08-08T05:21:21;7.57;;;2.90;;
7971;SDS011;4031;49.758;6.120;2023-08-08T05:23:47;3.60;;;2.87;;
7971;SDS011;4031;49.758;6.120;2023-08-08T05:26:13;6.43;;;3.90;;
7971;SDS011;4031;49.758;6.120;2023-08-08T05:28:40;5.90;;;3.80;;
7971;SDS011;4031;49.758;6.120;2023-08-08T05:31:06;11.90;;;3.53;;
7971;SDS011;4031;49.758;6.120;2023-08-08T05:33:32;11.10;;;3.90;;
7971;SDS011;4031;49.758;6.120;2023-08-08T05:35:57;5.70;;;3.40;;
7971;SDS011;4031;49.758;6.120;2023-08-08T05:38:24;8.73;;;4.00;;
7971;SDS011;4031;49.758;6.120;2023-08-08T05:40:52;10.33;;;4.23;;
7971;SDS011;4031;49.758;6.120;2023-08-08T05:43:18;9.53;;;4.17;;
7971;SDS011;4031;49.758;6.120;2023-08-08T05:45:44;8.00;;;4.10;;
7971;SDS011;4031;49.758;6.120;2023-08-08T05:48:10;7.00;;;3.40;;
7971;SDS011;4031;49.758;6.120;2023-08-08T05:50:39;3.80;;;3.07;;
7971;SDS011;4031;49.758;6.120;2023-08-08T05:53:05;5.20;;;3.90;;
7971;SDS011;4031;49.758;6.120;2023-08-08T05:55:32;7.73;;;3.60;;
7971;SDS011;4031;49.758;6.120;2023-08-08T05:57:58;7.87;;;3.20;;
7971;SDS011;4031;49.758;6.120;2023-08-08T06:00:23;6.00;;;3.07;;
7971;SDS011;4031;49.758;6.120;2023-08-08T06:02:49;8.47;;;3.80;;
7971;SDS011;4031;49.758;6.120;2023-08-08T06:05:16;7.50;;;3.30;;
7971;SDS011;4031;49.758;6.120;2023-08-08T06:07:42;4.87;;;3.20;;
7971;SDS011;4031;49.758;6.120;2023-08-08T06:10:08;3.00;;;2.20;;
7971;SDS011;4031;49.758;6.120;2023-08-08T06:12:34;5.40;;;3.43;;
7971;SDS011;4031;49.758;6.120;2023-08-08T06:15:00;5.63;;;3.17;;
7971;SDS011;4031;49.758;6.120;2023-08-08T06:17:26;5.30;;;3.63;;
7971;SDS011;4031;49.758;6.120;2023-08-08T06:19:51;4.60;;;2.50;;
7971;SDS011;4031;49.758;6.120;2023-08-08T06:22:19;4.30;;;2.73;;
7971;SDS011;4031;49.758;6.120;2023-08-08T06:24:44;5.10;;;2.80;;
7971;SDS011;4031;49.758;6.120;2023-08-08T06:27:10;3.60;;;2.60;;
7971;SDS011;4031;49.758;6.120;2023-08-08T06:29:37;5.17;;;2.90;;
7971;SDS011;4031;49.758;6.120;2023-08-08T06:32:03;6.00;;;3.47;;
7971;SDS011;4031;49.758;6.120;2023-08-08T06:34:29;5.23;;;3.23;;
7971;SDS011;4031;49.758;6.120;2023-08-08T06:36:54;3.17;;;2.87;;
7971;SDS011;4031;49.758;6.120;2023-08-08T06:39:20;3.40;;;2.80;;
7971;SDS011;4031;49.758;6.120;2023-08-08T06:41:47;7.03;;;3.40;;
7971;SDS011;4031;49.758;6.120;2023-08-08T06:44:13;4.93;;;2.63;;
7971;SDS011;4031;49.758;6.120;2023-08-08T06:46:38;2.20;;;2.00;;
7971;SDS011;4031;49.758;6.120;2023-08-08T06:49:04;2.80;;;2.00;;
7971;SDS011;4031;49.758;6.120;2023-08-08T06:51:31;4.90;;;2.73;;
7971;SDS011;4031;49.758;6.120;2023-08-08T06:53:57;2.47;;;2.27;;
7971;SDS011;4031;49.758;6.120;2023-08-08T06:56:23;3.37;;;1.77;;
7971;SDS011;4031;49.758;6.120;2023-08-08T06:58:51;5.03;;;2.10;;
7971;SDS011;4031;49.758;6.120;2023-08-08T07:01:17;2.43;;;1.77;;
7971;SDS011;4031;49.758;6.120;2023-08-08T07:03:43;5.03;;;1.73;;
7971;SDS011;4031;49.758;6.120;2023-08-08T07:06:09;4.07;;;2.03;;
7971;SDS011;4031;49.758;6.120;2023-08-08T07:08:35;2.50;;;1.13;;
7971;SDS011;4031;49.758;6.120;2023-08-08T07:11:04;4.77;;;1.60;;
7971;SDS011;4031;49.758;6.120;2023-08-08T07:13:33;5.00;;;1.90;;
7971;SDS011;4031;49.758;6.120;2023-08-08T07:15:59;2.90;;;1.83;;
7971;SDS011;4031;49.758;6.120;2023-08-08T07:18:25;2.80;;;1.73;;
7971;SDS011;4031;49.758;6.120;2023-08-08T07:20:51;5.17;;;2.10;;
7971;SDS011;4031;49.758;6.120;2023-08-08T07:23:17;2.07;;;1.87;;
7971;SDS011;4031;49.758;6.120;2023-08-08T07:25:43;3.00;;;1.60;;
7971;SDS011;4031;49.758;6.120;2023-08-08T07:28:11;2.07;;;1.67;;
7971;SDS011;4031;49.758;6.120;2023-08-08T07:30:39;2.43;;;2.23;;
7971;SDS011;4031;49.758;6.120;2023-08-08T07:33:05;1.80;;;1.70;;
7971;SDS011;4031;49.758;6.120;2023-08-08T07:35:33;2.50;;;1.40;;
7971;SDS011;4031;49.758;6.120;2023-08-08T07:37:59;2.43;;;1.40;;
7971;SDS011;4031;49.758;6.120;2023-08-08T07:40:25;4.30;;;1.93;;
7971;SDS011;4031;49.758;6.120;2023-08-08T07:42:51;1.50;;;1.40;;
7971;SDS011;4031;49.758;6.120;2023-08-08T07:45:17;2.50;;;1.77;;
7971;SDS011;4031;49.758;6.120;2023-08-08T07:47:43;2.40;;;1.50;;
7971;SDS011;4031;49.758;6.120;2023-08-08T07:50:09;2.23;;;1.80;;
7971;SDS011;4031;49.758;6.120;2023-08-08T07:52:35;4.87;;;2.00;;
7971;SDS011;4031;49.758;6.120;2023-08-08T07:55:01;3.53;;;1.70;;
7971;SDS011;4031;49.758;6.120;2023-08-08T07:57:28;1.70;;;1.40;;
7971;SDS011;4031;49.758;6.120;2023-08-08T07:59:55;1.57;;;1.47;;
7971;SDS011;4031;49.758;6.120;2023-08-08T08:02:21;1.67;;;1.50;;
7971;SDS011;4031;49.758;6.120;2023-08-08T08:04:47;1.90;;;1.30;;
7971;SDS011;4031;49.758;6.120;2023-08-08T08:07:12;1.93;;;1.73;;
7971;SDS011;4031;49.758;6.120;2023-08-08T08:09:38;2.13;;;1.60;;
7971;SDS011;4031;49.758;6.120;2023-08-08T08:12:07;1.77;;;1.67;;
7971;SDS011;4031;49.758;6.120;2023-08-08T08:14:33;2.70;;;1.73;;
7971;SDS011;4031;49.758;6.120;2023-08-08T08:16:59;2.80;;;2.00;;
7971;SDS011;4031;49.758;6.120;2023-08-08T08:19:25;4.70;;;1.57;;
7971;SDS011;4031;49.758;6.120;2023-08-08T08:21:50;4.97;;;1.60;;
7971;SDS011;4031;49.758;6.120;2023-08-08T08:24:16;1.67;;;1.57;;
7971;SDS011;4031;49.758;6.120;2023-08-08T08:26:42;2.30;;;1.50;;
7971;SDS011;4031;49.758;6.120;2023-08-08T08:29:07;4.17;;;1.60;;
7971;SDS011;4031;49.758;6.120;2023-08-08T08:31:33;3.73;;;1.40;;
7971;SDS011;4031;49.758;6.120;2023-08-08T08:33:59;3.20;;;1.87;;
7971;SDS011;4031;49.758;6.120;2023-08-08T08:36:24;1.70;;;1.60;;
7971;SDS011;4031;49.758;6.120;2023-08-08T08:38:51;3.00;;;1.73;;
7971;SDS011;4031;49.758;6.120;2023-08-08T08:41:18;1.70;;;1.43;;
7971;SDS011;4031;49.758;6.120;2023-08-08T08:43:48;2.23;;;1.47;;
7971;SDS011;4031;49.758;6.120;2023-08-08T08:46:15;3.47;;;1.60;;
7971;SDS011;4031;49.758;6.120;2023-08-08T08:48:45;3.63;;;1.70;;
7971;SDS011;4031;49.758;6.120;2023-08-08T08:51:15;2.03;;;1.30;;
7971;SDS011;4031;49.758;6.120;2023-08-08T08:53:41;2.07;;;1.30;;
7971;SDS011;4031;49.758;6.120;2023-08-08T08:56:08;2.00;;;1.20;;
7971;SDS011;4031;49.758;6.120;2023-08-08T08:58:34;2.97;;;1.03;;
7971;SDS011;4031;49.758;6.120;2023-08-08T09:00:59;2.37;;;1.37;;
7971;SDS011;4031;49.758;6.120;2023-08-08T09:03:25;1.67;;;1.57;;
7971;SDS011;4031;49.758;6.120;2023-08-08T09:05:51;1.30;;;1.07;;
7971;SDS011;4031;49.758;6.120;2023-08-08T09:08:19;2.53;;;1.20;;
7971;SDS011;4031;49.758;6.120;2023-08-08T09:10:45;3.80;;;1.20;;
7971;SDS011;4031;49.758;6.120;2023-08-08T09:13:11;1.83;;;1.53;;
7971;SDS011;4031;49.758;6.120;2023-08-08T09:15:36;2.77;;;1.43;;
7971;SDS011;4031;49.758;6.120;2023-08-08T09:18:02;1.50;;;1.23;;
7971;SDS011;4031;49.758;6.120;2023-08-08T09:20:28;1.70;;;1.40;;
7971;SDS011;4031;49.758;6.120;2023-08-08T09:22:55;2.63;;;1.30;;
7971;SDS011;4031;49.758;6.120;2023-08-08T09:25:22;2.13;;;1.30;;
7971;SDS011;4031;49.758;6.120;2023-08-08T09:27:50;0.97;;;0.87;;
7971;SDS011;4031;49.758;6.120;2023-08-08T09:30:18;2.03;;;1.10;;
7971;SDS011;4031;49.758;6.120;2023-08-08T09:32:44;1.47;;;0.87;;
7971;SDS011;4031;49.758;6.120;2023-08-08T09:35:10;1.87;;;1.00;;
7971;SDS011;4031;49.758;6.120;2023-08-08T09:37:36;1.07;;;0.63;;
7971;SDS011;4031;49.758;6.120;2023-08-08T09:40:03;2.30;;;1.07;;
7971;SDS011;4031;49.758;6.120;2023-08-08T09:42:32;1.00;;;0.73;;
7971;SDS011;4031;49.758;6.120;2023-08-08T09:44:59;2.13;;;0.80;;
7971;SDS011;4031;49.758;6.120;2023-08-08T09:47:25;4.10;;;0.97;;
7971;SDS011;4031;49.758;6.120;2023-08-08T09:50:00;1.87;;;0.80;;
7971;SDS011;4031;49.758;6.120;2023-08-08T09:52:29;1.87;;;0.80;;
7971;SDS011;4031;49.758;6.120;2023-08-08T09:54:55;1.70;;;1.53;;
7971;SDS011;4031;49.758;6.120;2023-08-08T09:57:22;1.20;;;0.80;;
7971;SDS011;4031;49.758;6.120;2023-08-08T09:59:49;1.40;;;0.80;;
7971;SDS011;4031;49.758;6.120;2023-08-08T10:02:16;1.83;;;0.80;;
7971;SDS011;4031;49.758;6.120;2023-08-08T10:04:43;1.77;;;1.10;;
7971;SDS011;4031;49.758;6.120;2023-08-08T10:07:11;0.90;;;0.57;;
7971;SDS011;4031;49.758;6.120;2023-08-08T10:09:36;1.43;;;0.70;;
7971;SDS011;4031;49.758;6.120;2023-08-08T10:12:03;0.80;;;0.60;;
7971;SDS011;4031;49.758;6.120;2023-08-08T10:14:34;1.30;;;0.90;;
7971;SDS011;4031;49.758;6.120;2023-08-08T10:17:05;1.07;;;0.90;;
7971;SDS011;4031;49.758;6.120;2023-08-08T10:19:31;1.77;;;1.00;;
7971;SDS011;4031;49.758;6.120;2023-08-08T10:21:58;0.80;;;0.80;;
7971;SDS011;4031;49.758;6.120;2023-08-08T10:24:34;1.60;;;0.97;;
7971;SDS011;4031;49.758;6.120;2023-08-08T10:27:02;1.77;;;0.83;;
7971;SDS011;4031;49.758;6.120;2023-08-08T10:29:30;2.20;;;1.20;;
7971;SDS011;4031;49.758;6.120;2023-08-08T10:31:58;1.67;;;0.83;;
7971;SDS011;4031;49.758;6.120;2023-08-08T10:34:27;1.10;;;1.00;;
7971;SDS011;4031;49.758;6.120;2023-08-08T10:37:16;2.23;;;0.77;;
7971;SDS011;4031;49.758;6.120;2023-08-08T10:42:25;2.33;;;1.00;;
7971;SDS011;4031;49.758;6.120;2023-08-08T10:44:56;1.80;;;0.87;;
7971;SDS011;4031;49.758;6.120;2023-08-08T10:47:25;1.00;;;0.80;;
7971;SDS011;4031;49.758;6.120;2023-08-08T10:50:11;1.17;;;0.90;;
7971;SDS011;4031;49.758;6.120;2023-08-08T10:53:00;2.10;;;1.20;;
7971;SDS011;4031;49.758;6.120;2023-08-08T10:55:33;0.90;;;0.80;;
7971;SDS011;4031;49.758;6.120;2023-08-08T10:58:07;2.10;;;1.07;;
7971;SDS011;4031;49.758;6.120;2023-08-08T11:00:36;1.17;;;1.03;;
7971;SDS011;4031;49.758;6.120;2023-08-08T11:03:05;1.17;;;0.93;;
7971;SDS011;4031;49.758;6.120;2023-08-08T11:05:35;4.10;;;1.37;;
7971;SDS011;4031;49.758;6.120;2023-08-08T11:08:02;3.17;;;1.10;;
7971;SDS011;4031;49.758;6.120;2023-08-08T11:10:34;1.17;;;1.07;;
7971;SDS011;4031;49.758;6.120;2023-08-08T11:13:03;5.43;;;1.50;;
7971;SDS011;4031;49.758;6.120;2023-08-08T11:15:34;2.40;;;1.60;;
7971;SDS011;4031;49.758;6.120;2023-08-08T11:18:02;1.43;;;1.03;;
7971;SDS011;4031;49.758;6.120;2023-08-08T11:20:29;1.80;;;1.07;;
7971;SDS011;4031;49.758;6.120;2023-08-08T11:23:00;3.13;;;1.23;;
7971;SDS011;4031;49.758;6.120;2023-08-08T11:25:27;1.90;;;1.10;;
7971;SDS011;4031;49.758;6.120;2023-08-08T11:27:55;2.97;;;1.10;;
7971;SDS011;4031;49.758;6.120;2023-08-08T11:30:22;1.70;;;1.13;;
7971;SDS011;4031;49.758;6.120;2023-08-08T11:32:53;1.30;;;1.20;;
7971;SDS011;4031;49.758;6.120;2023-08-08T11:35:21;1.63;;;0.83;;
7971;SDS011;4031;49.758;6.120;2023-08-08T11:37:52;2.53;;;1.00;;
7971;SDS011;4031;49.758;6.120;2023-08-08T11:40:20;2.33;;;1.43;;
7971;SDS011;4031;49.758;6.120;2023-08-08T11:42:47;2.53;;;1.07;;
7971;SDS011;4031;49.758;6.120;2023-08-08T11:45:15;4.07;;;1.40;;
7971;SDS011;4031;49.758;6.120;2023-08-08T11:47:41;2.30;;;1.03;;
7971;SDS011;4031;49.758;6.120;2023-08-08T11:50:08;2.67;;;1.43;;
7971;SDS011;4031;49.758;6.120;2023-08-08T11:52:39;1.40;;;1.30;;
7971;SDS011;4031;49.758;6.120;2023-08-08T11:55:08;1.53;;;1.13;;
7971;SDS011;4031;49.758;6.120;2023-08-08T11:57:35;3.47;;;1.57;;
7971;SDS011;4031;49.758;6.120;2023-08-08T12:00:08;2.03;;;1.20;;
7971;SDS011;4031;49.758;6.120;2023-08-08T12:02:42;3.30;;;1.80;;
7971;SDS011;4031;49.758;6.120;2023-08-08T12:05:12;4.20;;;1.20;;
7971;SDS011;4031;49.758;6.120;2023-08-08T12:07:42;2.30;;;1.17;;
7971;SDS011;4031;49.758;6.120;2023-08-08T12:10:19;1.90;;;1.50;;
7971;SDS011;4031;49.758;6.120;2023-08-08T12:12:51;3.90;;;1.37;;
7971;SDS011;4031;49.758;6.120;2023-08-08T12:15:23;4.43;;;1.63;;
7971;SDS011;4031;49.758;6.120;2023-08-08T12:17:49;2.20;;;2.10;;
7971;SDS011;4031;49.758;6.120;2023-08-08T12:20:15;2.57;;;2.20;;
7971;SDS011;4031;49.758;6.120;2023-08-08T12:22:41;5.17;;;1.77;;
7971;SDS011;4031;49.758;6.120;2023-08-08T12:25:06;1.73;;;1.63;;
7971;SDS011;4031;49.758;6.120;2023-08-08T12:27:33;3.30;;;1.40;;
7971;SDS011;4031;49.758;6.120;2023-08-08T12:29:59;4.57;;;1.57;;
7971;SDS011;4031;49.758;6.120;2023-08-08T12:32:25;1.70;;;1.60;;
7971;SDS011;4031;49.758;6.120;2023-08-08T12:34:53;2.57;;;1.47;;
7971;SDS011;4031;49.758;6.120;2023-08-08T12:37:21;2.57;;;1.27;;
7971;SDS011;4031;49.758;6.120;2023-08-08T12:39:48;1.60;;;1.50;;
7971;SDS011;4031;49.758;6.120;2023-08-08T12:42:14;4.30;;;1.53;;
7971;SDS011;4031;49.758;6.120;2023-08-08T12:44:41;3.20;;;1.77;;
7971;SDS011;4031;49.758;6.120;2023-08-08T12:47:06;1.70;;;1.60;;
7971;SDS011;4031;49.758;6.120;2023-08-08T12:49:32;2.53;;;1.97;;
7971;SDS011;4031;49.758;6.120;2023-08-08T12:51:58;1.77;;;1.30;;
7971;SDS011;4031;49.758;6.120;2023-08-08T12:54:23;2.57;;;1.73;;
7971;SDS011;4031;49.758;6.120;2023-08-08T12:56:49;3.07;;;1.70;;
7971;SDS011;4031;49.758;6.120;2023-08-08T12:59:15;3.63;;;1.47;;
7971;SDS011;4031;49.758;6.120;2023-08-08T13:01:41;4.87;;;1.67;;
7971;SDS011;4031;49.758;6.120;2023-08-08T13:04:06;3.10;;;1.80;;
7971;SDS011;4031;49.758;6.120;2023-08-08T13:06:32;1.80;;;1.70;;
7971;SDS011;4031;49.758;6.120;2023-08-08T13:08:58;4.50;;;2.03;;
7971;SDS011;4031;49.758;6.120;2023-08-08T13:11:25;4.70;;;1.50;;
7971;SDS011;4031;49.758;6.120;2023-08-08T13:13:51;3.40;;;1.80;;
7971;SDS011;4031;49.758;6.120;2023-08-08T13:16:17;1.87;;;1.73;;
7971;SDS011;4031;49.758;6.120;2023-08-08T13:18:43;1.40;;;1.30;;
7971;SDS011;4031;49.758;6.120;2023-08-08T13:21:08;4.03;;;1.50;;
7971;SDS011;4031;49.758;6.120;2023-08-08T13:23:35;2.30;;;1.50;;
7971;SDS011;4031;49.758;6.120;2023-08-08T13:26:01;3.57;;;1.40;;
7971;SDS011;4031;49.758;6.120;2023-08-08T13:28:28;6.17;;;1.57;;
7971;SDS011;4031;49.758;6.120;2023-08-08T13:30:54;3.00;;;1.60;;
7971;SDS011;4031;49.758;6.120;2023-08-08T13:33:20;2.63;;;1.60;;
7971;SDS011;4031;49.758;6.120;2023-08-08T13:35:46;2.60;;;1.40;;
7971;SDS011;4031;49.758;6.120;2023-08-08T13:38:12;3.70;;;1.97;;
7971;SDS011;4031;49.758;6.120;2023-08-08T13:40:42;1.80;;;1.70;;
7971;SDS011;4031;49.758;6.120;2023-08-08T13:43:08;2.30;;;1.40;;
7971;SDS011;4031;49.758;6.120;2023-08-08T13:45:34;1.77;;;1.37;;
7971;SDS011;4031;49.758;6.120;2023-08-08T13:48:00;3.30;;;1.33;;
7971;SDS011;4031;49.758;6.120;2023-08-08T13:50:26;3.70;;;1.73;;
7971;SDS011;4031;49.758;6.120;2023-08-08T13:52:52;6.70;;;2.20;;
7971;SDS011;4031;49.758;6.120;2023-08-08T13:55:19;1.57;;;1.37;;
7971;SDS011;4031;49.758;6.120;2023-08-08T13:57:45;2.83;;;1.57;;
7971;SDS011;4031;49.758;6.120;2023-08-08T14:00:11;2.00;;;1.43;;
7971;SDS011;4031;49.758;6.120;2023-08-08T14:02:38;2.57;;;1.93;;
7971;SDS011;4031;49.758;6.120;2023-08-08T14:05:04;1.80;;;1.33;;
7971;SDS011;4031;49.758;6.120;2023-08-08T14:07:32;2.83;;;1.50;;
7971;SDS011;4031;49.758;6.120;2023-08-08T14:10:01;3.10;;;1.50;;
7971;SDS011;4031;49.758;6.120;2023-08-08T14:12:29;2.57;;;2.37;;
7971;SDS011;4031;49.758;6.120;2023-08-08T14:14:54;2.67;;;1.80;;
7971;SDS011;4031;49.758;6.120;2023-08-08T14:17:20;2.90;;;1.83;;
7971;SDS011;4031;49.758;6.120;2023-08-08T14:19:47;2.53;;;1.70;;
7971;SDS011;4031;49.758;6.120;2023-08-08T14:22:12;1.30;;;1.20;;
7971;SDS011;4031;49.758;6.120;2023-08-08T14:24:38;3.70;;;1.60;;
7971;SDS011;4031;49.758;6.120;2023-08-08T14:27:04;3.63;;;1.57;;
7971;SDS011;4031;49.758;6.120;2023-08-08T14:29:29;2.27;;;1.80;;
7971;SDS011;4031;49.758;6.120;2023-08-08T14:31:55;1.70;;;1.60;;
7971;SDS011;4031;49.758;6.120;2023-08-08T14:34:30;1.97;;;1.47;;
7971;SDS011;4031;49.758;6.120;2023-08-08T14:36:57;3.43;;;1.70;;
7971;SDS011;4031;49.758;6.120;2023-08-08T14:39:24;2.37;;;1.57;;
7971;SDS011;4031;49.758;6.120;2023-08-08T14:41:50;3.43;;;1.70;;
7971;SDS011;4031;49.758;6.120;2023-08-08T14:44:16;1.93;;;1.57;;
7971;SDS011;4031;49.758;6.120;2023-08-08T14:46:42;1.67;;;1.50;;
7971;SDS011;4031;49.758;6.120;2023-08-08T14:49:08;1.43;;;1.30;;
7971;SDS011;4031;49.758;6.120;2023-08-08T14:51:34;1.80;;;1.20;;
7971;SDS011;4031;49.758;6.120;2023-08-08T14:54:00;2.77;;;1.17;;
7971;SDS011;4031;49.758;6.120;2023-08-08T14:56:27;2.33;;;1.43;;
7971;SDS011;4031;49.758;6.120;2023-08-08T14:58:53;3.17;;;1.67;;
7971;SDS011;4031;49.758;6.120;2023-08-08T15:01:19;2.10;;;1.63;;
7971;SDS011;4031;49.758;6.120;2023-08-08T15:03:45;1.40;;;1.30;;
7971;SDS011;4031;49.758;6.120;2023-08-08T15:06:11;1.60;;;1.27;;
7971;SDS011;4031;49.758;6.120;2023-08-08T15:08:37;2.27;;;1.63;;
7971;SDS011;4031;49.758;6.120;2023-08-08T15:11:02;3.30;;;1.50;;
7971;SDS011;4031;49.758;6.120;2023-08-08T15:13:28;3.73;;;1.50;;
7971;SDS011;4031;49.758;6.120;2023-08-08T15:15:54;2.20;;;1.80;;